This is the latest recevied weather packets stored in our database for station/object WC4PEM-8. If no packets are shown the sender has not sent any weather packets the latest 10 day(s).
| Time | Temp. | Humidity | Pressure | Rain* | Wind** | Luminosity | Snow |
|---|---|---|---|---|---|---|---|
| 1777320680 | 28.89° C | 59% | 1015.2 hPa | 0 mm | - | - | - |
| 1777320380 | 29.44° C | 58% | 1015.2 hPa | 0 mm | - | - | - |
| 1777320080 | 28.89° C | 58% | 1015.1 hPa | 0 mm | - | - | - |
| 1777319780 | 28.89° C | 57% | 1015.2 hPa | 0 mm | - | - | - |
| 1777319480 | 28.89° C | 57% | 1015.2 hPa | 0 mm | - | - | - |
| 1777319180 | 29.44° C | 56% | 1015.2 hPa | 0 mm | - | - | - |
| 1777319180 | 30.56° C | 54% | 1015.2 hPa | 0 mm | - | - | - |
| 1777318880 | 30.56° C | 54% | 1015.2 hPa | 0 mm | - | - | - |
| 1777318580 | 30° C | 56% | 1015.3 hPa | 0 mm | - | - | - |
| 1777318280 | 30° C | 53% | 1015.3 hPa | 0 mm | - | - | - |
| 1777317980 | 30.56° C | 54% | 1015.3 hPa | 0 mm | - | - | - |
| 1777317804 | 30.56° C | 55% | 1015.4 hPa | 0 mm | - | - | - |
| 1777317680 | 30.56° C | 55% | 1015.4 hPa | 0 mm | - | - | - |
| 1777317380 | 30.56° C | 54% | 1015.3 hPa | 0 mm | - | - | - |
| 1777317153 | 29.44° C | 56% | 1015.4 hPa | 0 mm | - | - | - |
| 1777317080 | 30° C | 55% | 1015.3 hPa | 0 mm | - | - | - |
| 1777316780 | 29.44° C | 56% | 1015.4 hPa | 0 mm | - | - | - |
| 1777316480 | 29.44° C | 58% | 1015.3 hPa | 0 mm | - | - | - |
| 1777316180 | 30° C | 57% | 1015.3 hPa | 0 mm | - | - | - |
| 1777315880 | 29.44° C | 56% | 1015.4 hPa | 0 mm | - | - | - |
| 1777315580 | 30° C | 56% | 1015.4 hPa | 0 mm | - | - | - |
| 1777315439 | 30° C | 56% | 1015.3 hPa | 0 mm | - | - | - |
| 1777315280 | 30° C | 56% | 1015.3 hPa | 0 mm | - | - | - |
| 1777314980 | 30° C | 56% | 1015.5 hPa | 0 mm | - | - | - |
| 1777314680 | 30° C | 57% | 1015.5 hPa | 0 mm | - | - | - |
* Rain latest hour (hover to see other rain measurements)
** Current wind speed in m/s (hover to see current wind gust speed)